sensor_id;sensor_type;location;lat;lon;timestamp;P1;durP1;ratioP1;P2;durP2;ratioP2
3941;SDS011;1985;48.592;8.850;2023-04-03T00:01:29;10.25;;;2.75;;
3941;SDS011;1985;48.592;8.850;2023-04-03T00:03:55;10.98;;;2.50;;
3941;SDS011;1985;48.592;8.850;2023-04-03T00:06:21;11.00;;;3.08;;
3941;SDS011;1985;48.592;8.850;2023-04-03T00:08:47;14.80;;;2.50;;
3941;SDS011;1985;48.592;8.850;2023-04-03T00:11:13;10.00;;;2.45;;
3941;SDS011;1985;48.592;8.850;2023-04-03T00:13:40;9.50;;;2.72;;
3941;SDS011;1985;48.592;8.850;2023-04-03T00:16:07;12.23;;;2.72;;
3941;SDS011;1985;48.592;8.850;2023-04-03T00:18:34;9.43;;;2.30;;
3941;SDS011;1985;48.592;8.850;2023-04-03T00:21:00;9.68;;;2.67;;
3941;SDS011;1985;48.592;8.850;2023-04-03T00:23:26;10.50;;;2.20;;
3941;SDS011;1985;48.592;8.850;2023-04-03T00:25:52;10.50;;;2.60;;
3941;SDS011;1985;48.592;8.850;2023-04-03T00:28:18;10.68;;;2.47;;
3941;SDS011;1985;48.592;8.850;2023-04-03T00:30:44;10.93;;;2.45;;
3941;SDS011;1985;48.592;8.850;2023-04-03T00:33:12;11.30;;;2.30;;
3941;SDS011;1985;48.592;8.850;2023-04-03T00:35:38;10.80;;;2.50;;
3941;SDS011;1985;48.592;8.850;2023-04-03T00:38:05;10.25;;;2.50;;
3941;SDS011;1985;48.592;8.850;2023-04-03T00:40:34;10.48;;;2.78;;
3941;SDS011;1985;48.592;8.850;2023-04-03T00:43:01;9.50;;;2.30;;
3941;SDS011;1985;48.592;8.850;2023-04-03T00:45:41;9.50;;;2.40;;
3941;SDS011;1985;48.592;8.850;2023-04-03T00:48:47;10.00;;;2.50;;
3941;SDS011;1985;48.592;8.850;2023-04-03T00:51:11;9.98;;;2.30;;
3941;SDS011;1985;48.592;8.850;2023-04-03T00:53:58;10.20;;;2.40;;
3941;SDS011;1985;48.592;8.850;2023-04-03T00:56:25;9.65;;;2.50;;
3941;SDS011;1985;48.592;8.850;2023-04-03T01:01:25;10.10;;;2.90;;
3941;SDS011;1985;48.592;8.850;2023-04-03T01:03:53;9.85;;;2.20;;
3941;SDS011;1985;48.592;8.850;2023-04-03T01:06:20;9.87;;;2.60;;
3941;SDS011;1985;48.592;8.850;2023-04-03T01:08:52;10.10;;;2.15;;
3941;SDS011;1985;48.592;8.850;2023-04-03T01:11:19;10.35;;;2.50;;
3941;SDS011;1985;48.592;8.850;2023-04-03T01:13:45;9.57;;;2.77;;
3941;SDS011;1985;48.592;8.850;2023-04-03T01:16:11;9.50;;;2.53;;
3941;SDS011;1985;48.592;8.850;2023-04-03T01:18:37;9.70;;;2.70;;
3941;SDS011;1985;48.592;8.850;2023-04-03T01:26:30;11.95;;;2.70;;
3941;SDS011;1985;48.592;8.850;2023-04-03T01:28:58;10.35;;;2.90;;
3941;SDS011;1985;48.592;8.850;2023-04-03T01:31:28;10.65;;;2.58;;
3941;SDS011;1985;48.592;8.850;2023-04-03T01:34:00;9.53;;;2.63;;
3941;SDS011;1985;48.592;8.850;2023-04-03T01:36:27;10.80;;;2.60;;
3941;SDS011;1985;48.592;8.850;2023-04-03T01:38:54;10.70;;;2.50;;
3941;SDS011;1985;48.592;8.850;2023-04-03T01:41:21;9.50;;;2.25;;
3941;SDS011;1985;48.592;8.850;2023-04-03T01:43:47;9.45;;;2.60;;
3941;SDS011;1985;48.592;8.850;2023-04-03T01:46:14;10.05;;;2.50;;
3941;SDS011;1985;48.592;8.850;2023-04-03T01:48:41;10.90;;;2.70;;
3941;SDS011;1985;48.592;8.850;2023-04-03T01:51:06;11.25;;;2.60;;
3941;SDS011;1985;48.592;8.850;2023-04-03T01:53:32;9.18;;;2.50;;
3941;SDS011;1985;48.592;8.850;2023-04-03T01:55:58;10.40;;;2.47;;
3941;SDS011;1985;48.592;8.850;2023-04-03T01:58:23;10.30;;;2.70;;
3941;SDS011;1985;48.592;8.850;2023-04-03T02:00:50;11.15;;;2.60;;
3941;SDS011;1985;48.592;8.850;2023-04-03T02:03:16;9.95;;;2.53;;
3941;SDS011;1985;48.592;8.850;2023-04-03T02:05:41;9.45;;;2.47;;
3941;SDS011;1985;48.592;8.850;2023-04-03T02:08:07;10.40;;;2.80;;
3941;SDS011;1985;48.592;8.850;2023-04-03T02:10:33;12.80;;;2.97;;
3941;SDS011;1985;48.592;8.850;2023-04-03T02:12:58;10.30;;;3.00;;
3941;SDS011;1985;48.592;8.850;2023-04-03T02:15:24;12.20;;;2.10;;
3941;SDS011;1985;48.592;8.850;2023-04-03T02:17:50;9.30;;;2.30;;
3941;SDS011;1985;48.592;8.850;2023-04-03T02:20:16;10.83;;;2.40;;
3941;SDS011;1985;48.592;8.850;2023-04-03T02:22:41;9.50;;;2.53;;
3941;SDS011;1985;48.592;8.850;2023-04-03T02:25:07;9.60;;;2.60;;
3941;SDS011;1985;48.592;8.850;2023-04-03T02:27:33;10.52;;;2.60;;
3941;SDS011;1985;48.592;8.850;2023-04-03T02:30:00;10.85;;;2.60;;
3941;SDS011;1985;48.592;8.850;2023-04-03T02:32:26;10.13;;;2.55;;
3941;SDS011;1985;48.592;8.850;2023-04-03T02:34:51;9.23;;;2.20;;
3941;SDS011;1985;48.592;8.850;2023-04-03T02:37:17;11.00;;;2.47;;
3941;SDS011;1985;48.592;8.850;2023-04-03T02:39:42;12.60;;;2.70;;
3941;SDS011;1985;48.592;8.850;2023-04-03T02:42:08;9.30;;;2.10;;
3941;SDS011;1985;48.592;8.850;2023-04-03T02:44:34;12.53;;;2.40;;
3941;SDS011;1985;48.592;8.850;2023-04-03T02:47:00;10.90;;;2.28;;
3941;SDS011;1985;48.592;8.850;2023-04-03T02:49:26;11.10;;;2.60;;
3941;SDS011;1985;48.592;8.850;2023-04-03T02:51:51;9.00;;;2.40;;
3941;SDS011;1985;48.592;8.850;2023-04-03T02:54:17;10.35;;;2.60;;
3941;SDS011;1985;48.592;8.850;2023-04-03T02:56:43;9.83;;;2.60;;
3941;SDS011;1985;48.592;8.850;2023-04-03T02:59:08;9.88;;;2.50;;
3941;SDS011;1985;48.592;8.850;2023-04-03T03:01:34;11.68;;;2.83;;
3941;SDS011;1985;48.592;8.850;2023-04-03T03:04:00;10.00;;;2.70;;
3941;SDS011;1985;48.592;8.850;2023-04-03T03:06:26;10.65;;;2.90;;
3941;SDS011;1985;48.592;8.850;2023-04-03T03:08:52;11.38;;;3.00;;
3941;SDS011;1985;48.592;8.850;2023-04-03T03:11:18;10.50;;;3.00;;
3941;SDS011;1985;48.592;8.850;2023-04-03T03:13:44;10.93;;;3.07;;
3941;SDS011;1985;48.592;8.850;2023-04-03T03:16:09;9.82;;;2.60;;
3941;SDS011;1985;48.592;8.850;2023-04-03T03:18:35;10.40;;;2.60;;
3941;SDS011;1985;48.592;8.850;2023-04-03T03:21:01;9.13;;;2.73;;
3941;SDS011;1985;48.592;8.850;2023-04-03T03:23:28;9.55;;;2.60;;
3941;SDS011;1985;48.592;8.850;2023-04-03T03:25:59;9.60;;;3.05;;
3941;SDS011;1985;48.592;8.850;2023-04-03T03:28:27;10.00;;;2.60;;
3941;SDS011;1985;48.592;8.850;2023-04-03T03:30:53;11.15;;;2.97;;
3941;SDS011;1985;48.592;8.850;2023-04-03T03:33:19;11.65;;;3.28;;
3941;SDS011;1985;48.592;8.850;2023-04-03T03:35:45;10.00;;;2.70;;
3941;SDS011;1985;48.592;8.850;2023-04-03T03:38:11;10.90;;;3.20;;
3941;SDS011;1985;48.592;8.850;2023-04-03T03:40:37;10.25;;;2.67;;
3941;SDS011;1985;48.592;8.850;2023-04-03T03:43:02;10.10;;;2.80;;
3941;SDS011;1985;48.592;8.850;2023-04-03T03:45:28;10.47;;;2.60;;
3941;SDS011;1985;48.592;8.850;2023-04-03T03:47:54;10.25;;;2.78;;
3941;SDS011;1985;48.592;8.850;2023-04-03T03:50:19;11.25;;;3.25;;
3941;SDS011;1985;48.592;8.850;2023-04-03T03:52:45;9.85;;;2.25;;
3941;SDS011;1985;48.592;8.850;2023-04-03T03:55:11;10.20;;;2.40;;
3941;SDS011;1985;48.592;8.850;2023-04-03T03:57:37;9.00;;;2.38;;
3941;SDS011;1985;48.592;8.850;2023-04-03T04:00:02;10.02;;;2.47;;
3941;SDS011;1985;48.592;8.850;2023-04-03T04:02:29;10.60;;;2.47;;
3941;SDS011;1985;48.592;8.850;2023-04-03T04:04:54;10.38;;;2.55;;
3941;SDS011;1985;48.592;8.850;2023-04-03T04:07:20;13.20;;;2.97;;
3941;SDS011;1985;48.592;8.850;2023-04-03T04:09:46;9.60;;;2.50;;
3941;SDS011;1985;48.592;8.850;2023-04-03T04:12:11;9.80;;;2.80;;
3941;SDS011;1985;48.592;8.850;2023-04-03T04:14:37;9.73;;;2.60;;
3941;SDS011;1985;48.592;8.850;2023-04-03T04:17:02;10.37;;;2.70;;
3941;SDS011;1985;48.592;8.850;2023-04-03T04:19:28;9.20;;;2.50;;
3941;SDS011;1985;48.592;8.850;2023-04-03T04:21:54;9.70;;;2.55;;
3941;SDS011;1985;48.592;8.850;2023-04-03T04:24:19;10.27;;;2.60;;
3941;SDS011;1985;48.592;8.850;2023-04-03T04:26:47;9.95;;;2.45;;
3941;SDS011;1985;48.592;8.850;2023-04-03T04:29:13;10.00;;;2.50;;
3941;SDS011;1985;48.592;8.850;2023-04-03T04:31:39;9.30;;;2.50;;
3941;SDS011;1985;48.592;8.850;2023-04-03T04:34:04;11.05;;;2.45;;
3941;SDS011;1985;48.592;8.850;2023-04-03T04:36:30;10.30;;;2.40;;
3941;SDS011;1985;48.592;8.850;2023-04-03T04:38:55;9.70;;;2.67;;
3941;SDS011;1985;48.592;8.850;2023-04-03T04:41:22;8.93;;;2.10;;
3941;SDS011;1985;48.592;8.850;2023-04-03T04:43:48;9.90;;;2.55;;
3941;SDS011;1985;48.592;8.850;2023-04-03T04:46:14;9.82;;;2.53;;
3941;SDS011;1985;48.592;8.850;2023-04-03T04:48:40;9.07;;;2.30;;
3941;SDS011;1985;48.592;8.850;2023-04-03T04:51:06;10.47;;;2.90;;
3941;SDS011;1985;48.592;8.850;2023-04-03T04:53:32;12.30;;;2.80;;
3941;SDS011;1985;48.592;8.850;2023-04-03T04:55:58;13.73;;;2.75;;
3941;SDS011;1985;48.592;8.850;2023-04-03T04:58:23;10.30;;;2.80;;
3941;SDS011;1985;48.592;8.850;2023-04-03T05:00:49;9.02;;;2.50;;
3941;SDS011;1985;48.592;8.850;2023-04-03T05:03:15;8.80;;;2.37;;
3941;SDS011;1985;48.592;8.850;2023-04-03T05:05:41;10.93;;;2.90;;
3941;SDS011;1985;48.592;8.850;2023-04-03T05:08:06;10.57;;;2.70;;
3941;SDS011;1985;48.592;8.850;2023-04-03T05:10:33;9.98;;;2.30;;
3941;SDS011;1985;48.592;8.850;2023-04-03T05:12:59;9.40;;;2.40;;
3941;SDS011;1985;48.592;8.850;2023-04-03T05:15:24;11.00;;;2.40;;
3941;SDS011;1985;48.592;8.850;2023-04-03T05:17:50;9.98;;;2.70;;
3941;SDS011;1985;48.592;8.850;2023-04-03T05:20:16;10.10;;;2.50;;
3941;SDS011;1985;48.592;8.850;2023-04-03T05:22:42;10.80;;;2.40;;
3941;SDS011;1985;48.592;8.850;2023-04-03T05:25:07;9.87;;;2.37;;
3941;SDS011;1985;48.592;8.850;2023-04-03T05:27:34;11.90;;;2.40;;
3941;SDS011;1985;48.592;8.850;2023-04-03T05:29:59;9.90;;;2.27;;
3941;SDS011;1985;48.592;8.850;2023-04-03T05:32:25;9.20;;;2.47;;
3941;SDS011;1985;48.592;8.850;2023-04-03T05:34:52;10.93;;;2.70;;
3941;SDS011;1985;48.592;8.850;2023-04-03T05:37:18;10.98;;;2.58;;
3941;SDS011;1985;48.592;8.850;2023-04-03T05:39:44;11.40;;;2.33;;
3941;SDS011;1985;48.592;8.850;2023-04-03T05:42:10;9.70;;;2.20;;
3941;SDS011;1985;48.592;8.850;2023-04-03T05:44:36;10.50;;;2.40;;
3941;SDS011;1985;48.592;8.850;2023-04-03T05:47:03;11.95;;;2.60;;
3941;SDS011;1985;48.592;8.850;2023-04-03T05:49:29;11.33;;;2.60;;
3941;SDS011;1985;48.592;8.850;2023-04-03T05:51:55;11.10;;;2.70;;
3941;SDS011;1985;48.592;8.850;2023-04-03T05:54:28;8.85;;;2.22;;
3941;SDS011;1985;48.592;8.850;2023-04-03T05:56:55;10.13;;;2.60;;
3941;SDS011;1985;48.592;8.850;2023-04-03T05:59:20;10.07;;;2.20;;
3941;SDS011;1985;48.592;8.850;2023-04-03T06:01:46;8.80;;;2.00;;
3941;SDS011;1985;48.592;8.850;2023-04-03T06:04:13;10.00;;;1.90;;
3941;SDS011;1985;48.592;8.850;2023-04-03T06:06:46;9.10;;;1.95;;
3941;SDS011;1985;48.592;8.850;2023-04-03T06:09:21;9.40;;;2.10;;
3941;SDS011;1985;48.592;8.850;2023-04-03T06:11:49;10.80;;;2.20;;
3941;SDS011;1985;48.592;8.850;2023-04-03T06:14:15;8.95;;;1.70;;
3941;SDS011;1985;48.592;8.850;2023-04-03T06:16:40;8.90;;;1.83;;
3941;SDS011;1985;48.592;8.850;2023-04-03T06:19:07;9.32;;;1.83;;
3941;SDS011;1985;48.592;8.850;2023-04-03T06:21:33;9.50;;;2.10;;
3941;SDS011;1985;48.592;8.850;2023-04-03T06:24:01;12.20;;;2.45;;
3941;SDS011;1985;48.592;8.850;2023-04-03T06:26:28;8.30;;;1.70;;
3941;SDS011;1985;48.592;8.850;2023-04-03T06:28:54;9.00;;;1.80;;
3941;SDS011;1985;48.592;8.850;2023-04-03T06:31:19;9.38;;;1.90;;
3941;SDS011;1985;48.592;8.850;2023-04-03T06:33:45;10.77;;;2.00;;
3941;SDS011;1985;48.592;8.850;2023-04-03T06:36:11;8.73;;;2.20;;
3941;SDS011;1985;48.592;8.850;2023-04-03T06:38:37;10.98;;;2.25;;
3941;SDS011;1985;48.592;8.850;2023-04-03T06:41:02;8.85;;;1.60;;
3941;SDS011;1985;48.592;8.850;2023-04-03T06:43:28;9.30;;;1.90;;
3941;SDS011;1985;48.592;8.850;2023-04-03T06:45:56;8.18;;;1.50;;
3941;SDS011;1985;48.592;8.850;2023-04-03T06:48:22;8.20;;;1.60;;
3941;SDS011;1985;48.592;8.850;2023-04-03T06:50:48;8.95;;;2.00;;
3941;SDS011;1985;48.592;8.850;2023-04-03T06:53:13;10.10;;;1.90;;
3941;SDS011;1985;48.592;8.850;2023-04-03T06:55:39;8.32;;;1.90;;
3941;SDS011;1985;48.592;8.850;2023-04-03T06:58:06;9.13;;;1.95;;
3941;SDS011;1985;48.592;8.850;2023-04-03T07:00:32;9.50;;;2.00;;
3941;SDS011;1985;48.592;8.850;2023-04-03T07:02:58;9.70;;;2.30;;
3941;SDS011;1985;48.592;8.850;2023-04-03T07:05:24;11.02;;;2.13;;
3941;SDS011;1985;48.592;8.850;2023-04-03T07:07:51;9.32;;;2.08;;
3941;SDS011;1985;48.592;8.850;2023-04-03T07:10:17;8.60;;;2.10;;
3941;SDS011;1985;48.592;8.850;2023-04-03T07:12:43;9.55;;;2.20;;
3941;SDS011;1985;48.592;8.850;2023-04-03T07:15:09;10.48;;;2.40;;
3941;SDS011;1985;48.592;8.850;2023-04-03T07:17:37;10.00;;;1.80;;
3941;SDS011;1985;48.592;8.850;2023-04-03T07:20:03;8.98;;;1.92;;
3941;SDS011;1985;48.592;8.850;2023-04-03T07:22:30;11.70;;;2.00;;
3941;SDS011;1985;48.592;8.850;2023-04-03T07:24:55;9.35;;;2.08;;
3941;SDS011;1985;48.592;8.850;2023-04-03T07:27:21;8.68;;;1.85;;
3941;SDS011;1985;48.592;8.850;2023-04-03T07:29:47;9.47;;;1.90;;
3941;SDS011;1985;48.592;8.850;2023-04-03T07:32:15;9.43;;;2.00;;
3941;SDS011;1985;48.592;8.850;2023-04-03T07:34:42;9.03;;;1.90;;
3941;SDS011;1985;48.592;8.850;2023-04-03T07:37:08;10.93;;;2.03;;
3941;SDS011;1985;48.592;8.850;2023-04-03T07:39:34;8.77;;;1.90;;
3941;SDS011;1985;48.592;8.850;2023-04-03T07:42:00;9.17;;;2.00;;
3941;SDS011;1985;48.592;8.850;2023-04-03T07:44:26;9.88;;;2.10;;
3941;SDS011;1985;48.592;8.850;2023-04-03T07:46:52;9.30;;;2.03;;
3941;SDS011;1985;48.592;8.850;2023-04-03T07:49:20;9.23;;;2.05;;
3941;SDS011;1985;48.592;8.850;2023-04-03T07:51:48;12.85;;;2.13;;
3941;SDS011;1985;48.592;8.850;2023-04-03T07:54:14;9.55;;;2.22;;
3941;SDS011;1985;48.592;8.850;2023-04-03T07:56:40;9.90;;;2.30;;
3941;SDS011;1985;48.592;8.850;2023-04-03T07:59:06;9.20;;;2.00;;
3941;SDS011;1985;48.592;8.850;2023-04-03T08:01:32;8.27;;;1.70;;
3941;SDS011;1985;48.592;8.850;2023-04-03T08:03:58;8.75;;;1.90;;
3941;SDS011;1985;48.592;8.850;2023-04-03T08:06:24;10.80;;;1.80;;
3941;SDS011;1985;48.592;8.850;2023-04-03T08:08:50;10.57;;;1.92;;
3941;SDS011;1985;48.592;8.850;2023-04-03T08:11:16;10.93;;;2.13;;
3941;SDS011;1985;48.592;8.850;2023-04-03T08:13:43;8.82;;;1.90;;
3941;SDS011;1985;48.592;8.850;2023-04-03T08:18:36;9.63;;;1.70;;
3941;SDS011;1985;48.592;8.850;2023-04-03T08:21:05;9.00;;;1.90;;
3941;SDS011;1985;48.592;8.850;2023-04-03T08:23:32;9.20;;;2.10;;
3941;SDS011;1985;48.592;8.850;2023-04-03T08:25:57;10.32;;;2.10;;
3941;SDS011;1985;48.592;8.850;2023-04-03T08:28:23;10.27;;;2.00;;
3941;SDS011;1985;48.592;8.850;2023-04-03T08:30:48;8.70;;;1.80;;
3941;SDS011;1985;48.592;8.850;2023-04-03T08:33:14;10.40;;;2.20;;
3941;SDS011;1985;48.592;8.850;2023-04-03T08:35:40;9.95;;;1.85;;
3941;SDS011;1985;48.592;8.850;2023-04-03T08:38:07;10.25;;;1.90;;
3941;SDS011;1985;48.592;8.850;2023-04-03T08:40:34;8.68;;;1.73;;
3941;SDS011;1985;48.592;8.850;2023-04-03T08:45:51;9.43;;;2.20;;
3941;SDS011;1985;48.592;8.850;2023-04-03T08:48:21;9.82;;;1.70;;
3941;SDS011;1985;48.592;8.850;2023-04-03T08:51:08;10.27;;;2.00;;
3941;SDS011;1985;48.592;8.850;2023-04-03T08:53:54;9.80;;;1.90;;
3941;SDS011;1985;48.592;8.850;2023-04-03T08:56:27;9.65;;;2.17;;
3941;SDS011;1985;48.592;8.850;2023-04-03T08:59:01;10.25;;;1.85;;
3941;SDS011;1985;48.592;8.850;2023-04-03T09:01:35;8.93;;;1.90;;
3941;SDS011;1985;48.592;8.850;2023-04-03T09:04:05;8.48;;;1.80;;
3941;SDS011;1985;48.592;8.850;2023-04-03T09:06:36;9.00;;;1.60;;
3941;SDS011;1985;48.592;8.850;2023-04-03T09:16:42;10.90;;;2.10;;
3941;SDS011;1985;48.592;8.850;2023-04-03T09:22:18;9.25;;;2.00;;
3941;SDS011;1985;48.592;8.850;2023-04-03T09:27:30;10.70;;;2.10;;
3941;SDS011;1985;48.592;8.850;2023-04-03T09:29:56;10.90;;;2.20;;
3941;SDS011;1985;48.592;8.850;2023-04-03T09:32:32;8.67;;;1.63;;
3941;SDS011;1985;48.592;8.850;2023-04-03T09:35:04;9.30;;;1.70;;
3941;SDS011;1985;48.592;8.850;2023-04-03T09:37:40;9.40;;;1.80;;
3941;SDS011;1985;48.592;8.850;2023-04-03T09:42:53;9.90;;;1.80;;
3941;SDS011;1985;48.592;8.850;2023-04-03T09:45:24;8.73;;;1.90;;
3941;SDS011;1985;48.592;8.850;2023-04-03T09:48:25;8.13;;;1.67;;
3941;SDS011;1985;48.592;8.850;2023-04-03T09:50:53;10.87;;;2.07;;
3941;SDS011;1985;48.592;8.850;2023-04-03T09:58:47;13.82;;;2.30;;
3941;SDS011;1985;48.592;8.850;2023-04-03T10:04:06;10.88;;;2.10;;
3941;SDS011;1985;48.592;8.850;2023-04-03T10:06:48;11.07;;;2.10;;
3941;SDS011;1985;48.592;8.850;2023-04-03T10:12:05;10.88;;;2.28;;
3941;SDS011;1985;48.592;8.850;2023-04-03T10:14:41;10.25;;;2.10;;
3941;SDS011;1985;48.592;8.850;2023-04-03T10:19:58;8.60;;;1.80;;
3941;SDS011;1985;48.592;8.850;2023-04-03T10:25:40;9.25;;;2.20;;
3941;SDS011;1985;48.592;8.850;2023-04-03T10:44:36;9.40;;;1.55;;
3941;SDS011;1985;48.592;8.850;2023-04-03T10:47:20;10.80;;;2.25;;
3941;SDS011;1985;48.592;8.850;2023-04-03T10:55:44;11.00;;;2.33;;
3941;SDS011;1985;48.592;8.850;2023-04-03T10:58:28;9.07;;;2.10;;
3941;SDS011;1985;48.592;8.850;2023-04-03T11:01:02;9.50;;;1.77;;
3941;SDS011;1985;48.592;8.850;2023-04-03T11:03:38;9.32;;;1.90;;
3941;SDS011;1985;48.592;8.850;2023-04-03T11:06:17;9.77;;;1.60;;
3941;SDS011;1985;48.592;8.850;2023-04-03T11:09:02;8.40;;;1.90;;
3941;SDS011;1985;48.592;8.850;2023-04-03T11:11:34;8.80;;;1.90;;
3941;SDS011;1985;48.592;8.850;2023-04-03T11:14:24;11.30;;;1.90;;
3941;SDS011;1985;48.592;8.850;2023-04-03T11:20:00;10.20;;;2.13;;
3941;SDS011;1985;48.592;8.850;2023-04-03T11:22:41;11.85;;;2.38;;
3941;SDS011;1985;48.592;8.850;2023-04-03T11:30:50;12.07;;;2.10;;
3941;SDS011;1985;48.592;8.850;2023-04-03T11:36:20;10.18;;;2.13;;
3941;SDS011;1985;48.592;8.850;2023-04-03T11:38:47;9.30;;;1.90;;
3941;SDS011;1985;48.592;8.850;2023-04-03T11:41:16;10.15;;;1.67;;
3941;SDS011;1985;48.592;8.850;2023-04-03T11:43:56;9.15;;;1.77;;
3941;SDS011;1985;48.592;8.850;2023-04-03T11:46:48;8.93;;;1.80;;
3941;SDS011;1985;48.592;8.850;2023-04-03T12:03:30;12.48;;;2.28;;
3941;SDS011;1985;48.592;8.850;2023-04-03T12:08:45;8.47;;;1.80;;
3941;SDS011;1985;48.592;8.850;2023-04-03T12:11:34;9.68;;;1.70;;
3941;SDS011;1985;48.592;8.850;2023-04-03T12:14:12;10.40;;;1.90;;
3941;SDS011;1985;48.592;8.850;2023-04-03T12:34:52;10.77;;;1.60;;
3941;SDS011;1985;48.592;8.850;2023-04-03T12:40:05;8.48;;;1.70;;
3941;SDS011;1985;48.592;8.850;2023-04-03T12:45:40;13.70;;;2.20;;
3941;SDS011;1985;48.592;8.850;2023-04-03T12:48:13;9.57;;;1.60;;
3941;SDS011;1985;48.592;8.850;2023-04-03T12:50:41;9.13;;;1.50;;
3941;SDS011;1985;48.592;8.850;2023-04-03T12:53:13;9.40;;;1.60;;
3941;SDS011;1985;48.592;8.850;2023-04-03T12:55:55;10.30;;;1.90;;
3941;SDS011;1985;48.592;8.850;2023-04-03T12:58:24;9.73;;;1.60;;
3941;SDS011;1985;48.592;8.850;2023-04-03T13:00:58;10.40;;;1.67;;
3941;SDS011;1985;48.592;8.850;2023-04-03T13:03:27;9.80;;;2.30;;
3941;SDS011;1985;48.592;8.850;2023-04-03T13:05:59;10.18;;;1.92;;
3941;SDS011;1985;48.592;8.850;2023-04-03T13:08:27;10.32;;;1.80;;
3941;SDS011;1985;48.592;8.850;2023-04-03T13:11:03;9.32;;;1.83;;
3941;SDS011;1985;48.592;8.850;2023-04-03T13:13:33;9.15;;;2.00;;
3941;SDS011;1985;48.592;8.850;2023-04-03T13:15:59;9.55;;;1.60;;
3941;SDS011;1985;48.592;8.850;2023-04-03T13:18:34;9.15;;;1.45;;
3941;SDS011;1985;48.592;8.850;2023-04-03T13:21:19;8.43;;;1.75;;
3941;SDS011;1985;48.592;8.850;2023-04-03T13:23:51;11.70;;;2.00;;
3941;SDS011;1985;48.592;8.850;2023-04-03T13:26:20;8.93;;;1.92;;
3941;SDS011;1985;48.592;8.850;2023-04-03T13:28:47;9.40;;;2.00;;
3941;SDS011;1985;48.592;8.850;2023-04-03T13:31:25;12.32;;;2.80;;
3941;SDS011;1985;48.592;8.850;2023-04-03T13:34:02;8.90;;;1.90;;
3941;SDS011;1985;48.592;8.850;2023-04-03T13:36:39;10.30;;;2.03;;
3941;SDS011;1985;48.592;8.850;2023-04-03T13:41:37;11.10;;;2.10;;
3941;SDS011;1985;48.592;8.850;2023-04-03T13:46:51;9.82;;;1.60;;
3941;SDS011;1985;48.592;8.850;2023-04-03T13:49:27;9.30;;;1.60;;
3941;SDS011;1985;48.592;8.850;2023-04-03T13:51:56;8.23;;;1.50;;
3941;SDS011;1985;48.592;8.850;2023-04-03T13:54:24;9.27;;;2.00;;
3941;SDS011;1985;48.592;8.850;2023-04-03T13:56:59;10.70;;;2.00;;
3941;SDS011;1985;48.592;8.850;2023-04-03T13:59:30;8.70;;;1.83;;
3941;SDS011;1985;48.592;8.850;2023-04-03T14:04:28;8.93;;;1.90;;
3941;SDS011;1985;48.592;8.850;2023-04-03T14:06:56;10.30;;;2.30;;
3941;SDS011;1985;48.592;8.850;2023-04-03T14:09:23;9.00;;;2.00;;
3941;SDS011;1985;48.592;8.850;2023-04-03T14:11:52;8.30;;;1.63;;
3941;SDS011;1985;48.592;8.850;2023-04-03T14:14:24;8.13;;;1.60;;
3941;SDS011;1985;48.592;8.850;2023-04-03T14:16:54;11.43;;;1.90;;
3941;SDS011;1985;48.592;8.850;2023-04-03T14:19:30;8.13;;;1.70;;
3941;SDS011;1985;48.592;8.850;2023-04-03T14:21:58;10.93;;;1.75;;
3941;SDS011;1985;48.592;8.850;2023-04-03T14:24:26;10.82;;;1.77;;
3941;SDS011;1985;48.592;8.850;2023-04-03T14:26:53;10.50;;;1.60;;
3941;SDS011;1985;48.592;8.850;2023-04-03T14:29:20;10.93;;;1.90;;
3941;SDS011;1985;48.592;8.850;2023-04-03T14:31:47;9.93;;;2.50;;
3941;SDS011;1985;48.592;8.850;2023-04-03T14:34:13;10.30;;;1.90;;
3941;SDS011;1985;48.592;8.850;2023-04-03T14:36:40;9.60;;;1.45;;
3941;SDS011;1985;48.592;8.850;2023-04-03T14:39:07;11.50;;;1.60;;
3941;SDS011;1985;48.592;8.850;2023-04-03T14:41:35;9.00;;;1.80;;
3941;SDS011;1985;48.592;8.850;2023-04-03T14:44:01;10.63;;;1.90;;
3941;SDS011;1985;48.592;8.850;2023-04-03T14:46:37;10.05;;;2.00;;
3941;SDS011;1985;48.592;8.850;2023-04-03T14:49:18;8.70;;;1.70;;
3941;SDS011;1985;48.592;8.850;2023-04-03T14:51:46;9.38;;;1.90;;
3941;SDS011;1985;48.592;8.850;2023-04-03T14:54:19;8.75;;;1.70;;
3941;SDS011;1985;48.592;8.850;2023-04-03T14:56:50;10.60;;;2.00;;
3941;SDS011;1985;48.592;8.850;2023-04-03T14:59:16;8.45;;;1.52;;
3941;SDS011;1985;48.592;8.850;2023-04-03T15:01:45;7.90;;;1.60;;
3941;SDS011;1985;48.592;8.850;2023-04-03T15:04:18;9.50;;;1.90;;
3941;SDS011;1985;48.592;8.850;2023-04-03T15:06:45;9.98;;;1.90;;
3941;SDS011;1985;48.592;8.850;2023-04-03T15:09:20;10.90;;;1.88;;
3941;SDS011;1985;48.592;8.850;2023-04-03T15:11:52;8.63;;;1.90;;
3941;SDS011;1985;48.592;8.850;2023-04-03T15:14:19;12.23;;;2.08;;
3941;SDS011;1985;48.592;8.850;2023-04-03T15:16:45;10.48;;;1.75;;
3941;SDS011;1985;48.592;8.850;2023-04-03T15:19:11;9.73;;;1.75;;
3941;SDS011;1985;48.592;8.850;2023-04-03T15:21:38;10.00;;;2.20;;
3941;SDS011;1985;48.592;8.850;2023-04-03T15:24:04;10.75;;;2.30;;
3941;SDS011;1985;48.592;8.850;2023-04-03T15:26:30;9.65;;;1.92;;
3941;SDS011;1985;48.592;8.850;2023-04-03T15:28:56;9.15;;;2.05;;
3941;SDS011;1985;48.592;8.850;2023-04-03T15:31:22;9.80;;;1.92;;
3941;SDS011;1985;48.592;8.850;2023-04-03T15:33:47;11.50;;;2.30;;
3941;SDS011;1985;48.592;8.850;2023-04-03T15:36:13;9.40;;;2.00;;
3941;SDS011;1985;48.592;8.850;2023-04-03T15:38:38;10.57;;;3.00;;
3941;SDS011;1985;48.592;8.850;2023-04-03T15:41:04;10.30;;;2.50;;
3941;SDS011;1985;48.592;8.850;2023-04-03T15:43:30;10.02;;;1.80;;
3941;SDS011;1985;48.592;8.850;2023-04-03T15:45:58;8.85;;;1.60;;
3941;SDS011;1985;48.592;8.850;2023-04-03T15:48:25;9.15;;;2.08;;
3941;SDS011;1985;48.592;8.850;2023-04-03T15:50:52;10.00;;;2.00;;
3941;SDS011;1985;48.592;8.850;2023-04-03T15:53:18;9.97;;;1.90;;
3941;SDS011;1985;48.592;8.850;2023-04-03T15:55:43;9.30;;;2.00;;
3941;SDS011;1985;48.592;8.850;2023-04-03T15:58:09;8.43;;;1.77;;
3941;SDS011;1985;48.592;8.850;2023-04-03T16:00:35;10.35;;;1.95;;
3941;SDS011;1985;48.592;8.850;2023-04-03T16:03:04;9.70;;;1.80;;
3941;SDS011;1985;48.592;8.850;2023-04-03T16:05:33;9.95;;;2.17;;
3941;SDS011;1985;48.592;8.850;2023-04-03T16:08:01;8.68;;;1.73;;
3941;SDS011;1985;48.592;8.850;2023-04-03T16:10:27;9.40;;;2.10;;
3941;SDS011;1985;48.592;8.850;2023-04-03T16:12:53;9.82;;;1.90;;
3941;SDS011;1985;48.592;8.850;2023-04-03T16:15:18;12.10;;;2.40;;
3941;SDS011;1985;48.592;8.850;2023-04-03T16:17:44;10.48;;;2.35;;
3941;SDS011;1985;48.592;8.850;2023-04-03T16:20:10;8.48;;;2.00;;
3941;SDS011;1985;48.592;8.850;2023-04-03T16:22:37;9.00;;;2.30;;
3941;SDS011;1985;48.592;8.850;2023-04-03T16:25:05;10.02;;;2.10;;
3941;SDS011;1985;48.592;8.850;2023-04-03T16:27:31;9.63;;;2.20;;
3941;SDS011;1985;48.592;8.850;2023-04-03T16:29:57;9.10;;;2.08;;
3941;SDS011;1985;48.592;8.850;2023-04-03T16:32:26;9.63;;;2.00;;
3941;SDS011;1985;48.592;8.850;2023-04-03T16:34:55;10.75;;;3.00;;
3941;SDS011;1985;48.592;8.850;2023-04-03T16:37:21;10.27;;;2.03;;
3941;SDS011;1985;48.592;8.850;2023-04-03T16:39:46;9.60;;;2.03;;
3941;SDS011;1985;48.592;8.850;2023-04-03T16:42:12;11.07;;;2.35;;
3941;SDS011;1985;48.592;8.850;2023-04-03T16:44:38;12.40;;;2.00;;
3941;SDS011;1985;48.592;8.850;2023-04-03T16:47:05;10.00;;;1.50;;
3941;SDS011;1985;48.592;8.850;2023-04-03T16:49:31;9.48;;;1.90;;
3941;SDS011;1985;48.592;8.850;2023-04-03T16:52:03;9.60;;;1.50;;
3941;SDS011;1985;48.592;8.850;2023-04-03T16:54:30;9.20;;;1.80;;
3941;SDS011;1985;48.592;8.850;2023-04-03T16:56:56;9.13;;;1.73;;
3941;SDS011;1985;48.592;8.850;2023-04-03T16:59:21;8.45;;;1.75;;
3941;SDS011;1985;48.592;8.850;2023-04-03T17:01:47;9.35;;;1.67;;
3941;SDS011;1985;48.592;8.850;2023-04-03T17:04:13;11.25;;;2.08;;
3941;SDS011;1985;48.592;8.850;2023-04-03T17:06:39;8.60;;;1.60;;
3941;SDS011;1985;48.592;8.850;2023-04-03T17:09:05;11.70;;;2.00;;
3941;SDS011;1985;48.592;8.850;2023-04-03T17:11:31;9.57;;;1.75;;
3941;SDS011;1985;48.592;8.850;2023-04-03T17:13:58;11.30;;;1.58;;
3941;SDS011;1985;48.592;8.850;2023-04-03T17:16:24;11.10;;;2.10;;
3941;SDS011;1985;48.592;8.850;2023-04-03T17:18:50;9.35;;;1.92;;
3941;SDS011;1985;48.592;8.850;2023-04-03T17:21:18;9.65;;;2.20;;
3941;SDS011;1985;48.592;8.850;2023-04-03T17:23:45;9.15;;;2.20;;